sensor_id;sensor_type;location;lat;lon;timestamp;pressure;altitude;pressure_sealevel;temperature;humidity
31483;BME280;18103;52.246;8.052;2023-08-12T00:00:54;100610.66;;;21.41;80.26
31483;BME280;18103;52.246;8.052;2023-08-12T00:03:19;100607.22;;;21.32;81.03
31483;BME280;18103;52.246;8.052;2023-08-12T00:05:45;100608.41;;;21.15;83.01
31483;BME280;18103;52.246;8.052;2023-08-12T00:08:10;100617.19;;;21.24;83.20
31483;BME280;18103;52.246;8.052;2023-08-12T00:10:36;100621.38;;;21.26;83.60
31483;BME280;18103;52.246;8.052;2023-08-12T00:13:03;100627.34;;;21.36;81.48
31483;BME280;18103;52.246;8.052;2023-08-12T00:15:29;100634.28;;;21.31;83.76
31483;BME280;18103;52.246;8.052;2023-08-12T00:17:56;100625.28;;;21.39;82.62
31483;BME280;18103;52.246;8.052;2023-08-12T00:20:22;100616.66;;;21.43;82.00
31483;BME280;18103;52.246;8.052;2023-08-12T00:22:47;100614.09;;;21.35;82.80
31483;BME280;18103;52.246;8.052;2023-08-12T00:25:12;100622.75;;;21.22;84.97
31483;BME280;18103;52.246;8.052;2023-08-12T00:27:38;100616.00;;;21.26;83.63
31483;BME280;18103;52.246;8.052;2023-08-12T00:30:04;100606.66;;;21.22;85.87
31483;BME280;18103;52.246;8.052;2023-08-12T00:34:55;100602.13;;;21.37;84.68
31483;BME280;18103;52.246;8.052;2023-08-12T00:37:20;100602.97;;;21.38;84.67
31483;BME280;18103;52.246;8.052;2023-08-12T00:39:48;100597.97;;;21.35;84.51
31483;BME280;18103;52.246;8.052;2023-08-12T00:42:14;100597.69;;;21.30;84.75
31483;BME280;18103;52.246;8.052;2023-08-12T00:44:39;100597.59;;;21.38;84.61
31483;BME280;18103;52.246;8.052;2023-08-12T00:47:05;100588.16;;;21.27;85.78
31483;BME280;18103;52.246;8.052;2023-08-12T00:49:31;100589.16;;;21.26;86.25
31483;BME280;18103;52.246;8.052;2023-08-12T00:52:02;100602.78;;;21.25;86.40
31483;BME280;18103;52.246;8.052;2023-08-12T00:54:29;100598.25;;;21.25;86.38
31483;BME280;18103;52.246;8.052;2023-08-12T00:56:55;100593.63;;;21.34;84.84
31483;BME280;18103;52.246;8.052;2023-08-12T00:59:23;100582.88;;;21.34;85.54
31483;BME280;18103;52.246;8.052;2023-08-12T01:01:49;100584.38;;;21.36;85.35
31483;BME280;18103;52.246;8.052;2023-08-12T01:04:15;100593.03;;;21.24;86.97
31483;BME280;18103;52.246;8.052;2023-08-12T01:06:40;100578.44;;;21.11;88.30
31483;BME280;18103;52.246;8.052;2023-08-12T01:09:07;100576.28;;;21.07;89.21
31483;BME280;18103;52.246;8.052;2023-08-12T01:14:25;100569.72;;;21.09;88.15
31483;BME280;18103;52.246;8.052;2023-08-12T01:16:59;100560.47;;;21.12;88.67
31483;BME280;18103;52.246;8.052;2023-08-12T01:22:01;100550.66;;;21.19;87.53
31483;BME280;18103;52.246;8.052;2023-08-12T01:24:27;100560.84;;;21.09;88.53
31483;BME280;18103;52.246;8.052;2023-08-12T01:26:59;100556.47;;;21.08;88.81
31483;BME280;18103;52.246;8.052;2023-08-12T01:29:24;100554.16;;;21.05;88.76
31483;BME280;18103;52.246;8.052;2023-08-12T01:32:11;100553.59;;;21.09;88.99
31483;BME280;18103;52.246;8.052;2023-08-12T01:34:47;100545.94;;;21.06;88.79
31483;BME280;18103;52.246;8.052;2023-08-12T01:37:23;100541.56;;;21.05;88.75
31483;BME280;18103;52.246;8.052;2023-08-12T01:39:49;100550.28;;;20.92;89.95
31483;BME280;18103;52.246;8.052;2023-08-12T01:42:18;100543.91;;;20.93;90.18
31483;BME280;18103;52.246;8.052;2023-08-12T01:44:48;100546.22;;;20.96;90.12
31483;BME280;18103;52.246;8.052;2023-08-12T01:47:14;100538.22;;;20.88;90.39
31483;BME280;18103;52.246;8.052;2023-08-12T01:49:41;100530.56;;;20.85;90.54
31483;BME280;18103;52.246;8.052;2023-08-12T01:52:07;100526.13;;;20.92;90.39
31483;BME280;18103;52.246;8.052;2023-08-12T01:54:33;100530.19;;;20.88;90.86
31483;BME280;18103;52.246;8.052;2023-08-12T01:57:03;100525.03;;;21.01;89.50
31483;BME280;18103;52.246;8.052;2023-08-12T01:59:33;100527.59;;;20.95;90.19
31483;BME280;18103;52.246;8.052;2023-08-12T02:01:59;100524.72;;;20.96;89.74
31483;BME280;18103;52.246;8.052;2023-08-12T02:04:27;100526.03;;;21.15;86.82
31483;BME280;18103;52.246;8.052;2023-08-12T02:06:53;100525.03;;;21.01;89.42
31483;BME280;18103;52.246;8.052;2023-08-12T02:09:19;100519.00;;;20.99;89.51
31483;BME280;18103;52.246;8.052;2023-08-12T02:11:45;100522.63;;;20.92;90.18
31483;BME280;18103;52.246;8.052;2023-08-12T02:14:10;100520.66;;;20.85;90.88
31483;BME280;18103;52.246;8.052;2023-08-12T02:16:36;100525.38;;;20.83;90.78
31483;BME280;18103;52.246;8.052;2023-08-12T02:19:01;100518.81;;;20.86;90.96
31483;BME280;18103;52.246;8.052;2023-08-12T02:21:29;100517.34;;;20.83;91.28
31483;BME280;18103;52.246;8.052;2023-08-12T02:23:55;100508.34;;;20.91;90.09
31483;BME280;18103;52.246;8.052;2023-08-12T02:26:20;100507.81;;;20.96;90.36
31483;BME280;18103;52.246;8.052;2023-08-12T02:28:48;100508.16;;;20.93;90.89
31483;BME280;18103;52.246;8.052;2023-08-12T02:31:16;100500.28;;;20.91;90.43
31483;BME280;18103;52.246;8.052;2023-08-12T02:33:44;100499.56;;;20.97;90.11
31483;BME280;18103;52.246;8.052;2023-08-12T02:36:09;100490.84;;;20.95;89.65
31483;BME280;18103;52.246;8.052;2023-08-12T02:38:37;100502.78;;;20.93;90.23
31483;BME280;18103;52.246;8.052;2023-08-12T02:41:07;100486.16;;;20.97;90.62
31483;BME280;18103;52.246;8.052;2023-08-12T02:43:33;100497.50;;;20.84;91.12
31483;BME280;18103;52.246;8.052;2023-08-12T02:45:58;100495.78;;;20.92;90.12
31483;BME280;18103;52.246;8.052;2023-08-12T02:48:26;100493.28;;;20.90;90.02
31483;BME280;18103;52.246;8.052;2023-08-12T02:50:53;100503.81;;;20.92;89.94
31483;BME280;18103;52.246;8.052;2023-08-12T02:53:21;100507.16;;;20.94;90.70
31483;BME280;18103;52.246;8.052;2023-08-12T02:55:46;100504.56;;;21.00;89.99
31483;BME280;18103;52.246;8.052;2023-08-12T02:58:11;100495.75;;;21.07;89.65
31483;BME280;18103;52.246;8.052;2023-08-12T03:00:38;100492.72;;;21.10;89.01
31483;BME280;18103;52.246;8.052;2023-08-12T03:03:05;100490.94;;;21.02;89.96
31483;BME280;18103;52.246;8.052;2023-08-12T03:05:31;100489.28;;;21.01;89.91
31483;BME280;18103;52.246;8.052;2023-08-12T03:07:59;100486.16;;;20.97;90.45
31483;BME280;18103;52.246;8.052;2023-08-12T03:10:26;100479.03;;;21.05;89.49
31483;BME280;18103;52.246;8.052;2023-08-12T03:12:52;100478.09;;;20.97;89.64
31483;BME280;18103;52.246;8.052;2023-08-12T03:15:18;100484.94;;;21.00;89.77
31483;BME280;18103;52.246;8.052;2023-08-12T03:17:44;100485.97;;;20.99;90.37
31483;BME280;18103;52.246;8.052;2023-08-12T03:20:12;100479.75;;;20.98;89.49
31483;BME280;18103;52.246;8.052;2023-08-12T03:22:39;100475.22;;;20.99;89.71
31483;BME280;18103;52.246;8.052;2023-08-12T03:25:08;100472.34;;;21.00;89.56
31483;BME280;18103;52.246;8.052;2023-08-12T03:27:36;100474.94;;;20.94;90.15
31483;BME280;18103;52.246;8.052;2023-08-12T03:30:01;100475.41;;;20.97;89.53
31483;BME280;18103;52.246;8.052;2023-08-12T03:32:26;100464.41;;;20.92;89.49
31483;BME280;18103;52.246;8.052;2023-08-12T03:34:54;100470.13;;;21.04;87.95
31483;BME280;18103;52.246;8.052;2023-08-12T03:37:19;100468.19;;;20.98;89.49
31483;BME280;18103;52.246;8.052;2023-08-12T03:39:45;100472.53;;;20.99;90.18
31483;BME280;18103;52.246;8.052;2023-08-12T03:42:10;100469.00;;;20.98;89.16
31483;BME280;18103;52.246;8.052;2023-08-12T03:44:36;100464.13;;;21.02;89.06
31483;BME280;18103;52.246;8.052;2023-08-12T03:47:03;100470.69;;;20.99;88.87
31483;BME280;18103;52.246;8.052;2023-08-12T03:49:33;100468.66;;;21.01;89.77
31483;BME280;18103;52.246;8.052;2023-08-12T03:51:59;100464.22;;;21.09;88.77
31483;BME280;18103;52.246;8.052;2023-08-12T03:54:24;100470.59;;;21.08;89.28
31483;BME280;18103;52.246;8.052;2023-08-12T03:56:50;100461.63;;;21.00;89.34
31483;BME280;18103;52.246;8.052;2023-08-12T03:59:15;100461.34;;;20.95;90.00
31483;BME280;18103;52.246;8.052;2023-08-12T04:01:45;100469.28;;;21.03;87.99
31483;BME280;18103;52.246;8.052;2023-08-12T04:04:10;100468.19;;;20.98;89.03
31483;BME280;18103;52.246;8.052;2023-08-12T04:06:39;100467.47;;;20.89;90.52
31483;BME280;18103;52.246;8.052;2023-08-12T04:09:04;100467.72;;;20.79;91.06
31483;BME280;18103;52.246;8.052;2023-08-12T04:11:32;100463.47;;;20.85;91.37
31483;BME280;18103;52.246;8.052;2023-08-12T04:13:57;100463.75;;;20.90;90.91
31483;BME280;18103;52.246;8.052;2023-08-12T04:16:23;100466.25;;;20.92;90.91
31483;BME280;18103;52.246;8.052;2023-08-12T04:18:48;100470.06;;;20.97;90.47
31483;BME280;18103;52.246;8.052;2023-08-12T04:21:13;100470.50;;;21.01;89.99
31483;BME280;18103;52.246;8.052;2023-08-12T04:23:41;100461.25;;;21.03;89.41
31483;BME280;18103;52.246;8.052;2023-08-12T04:26:06;100453.56;;;21.00;89.30
31483;BME280;18103;52.246;8.052;2023-08-12T04:28:34;100455.06;;;21.03;89.16
31483;BME280;18103;52.246;8.052;2023-08-12T04:31:00;100457.44;;;20.98;89.42
31483;BME280;18103;52.246;8.052;2023-08-12T04:33:30;100457.34;;;20.91;89.30
31483;BME280;18103;52.246;8.052;2023-08-12T04:35:58;100453.00;;;21.05;88.02
31483;BME280;18103;52.246;8.052;2023-08-12T04:38:23;100463.34;;;21.08;87.97
31483;BME280;18103;52.246;8.052;2023-08-12T04:40:49;100460.41;;;21.03;87.96
31483;BME280;18103;52.246;8.052;2023-08-12T04:43:16;100449.41;;;20.83;90.63
31483;BME280;18103;52.246;8.052;2023-08-12T04:45:47;100446.44;;;20.93;90.15
31483;BME280;18103;52.246;8.052;2023-08-12T04:48:13;100450.25;;;20.83;91.59
31483;BME280;18103;52.246;8.052;2023-08-12T04:50:38;100439.16;;;20.87;90.69
31483;BME280;18103;52.246;8.052;2023-08-12T04:53:05;100442.31;;;20.90;89.98
31483;BME280;18103;52.246;8.052;2023-08-12T04:55:31;100436.56;;;20.93;89.71
31483;BME280;18103;52.246;8.052;2023-08-12T04:57:57;100437.47;;;20.85;89.87
31483;BME280;18103;52.246;8.052;2023-08-12T05:00:22;100428.78;;;20.83;89.88
31483;BME280;18103;52.246;8.052;2023-08-12T05:02:48;100432.84;;;20.79;89.53
31483;BME280;18103;52.246;8.052;2023-08-12T05:05:13;100430.09;;;20.88;89.45
31483;BME280;18103;52.246;8.052;2023-08-12T05:07:39;100432.97;;;20.86;89.03
31483;BME280;18103;52.246;8.052;2023-08-12T05:10:07;100429.69;;;20.91;89.34
31483;BME280;18103;52.246;8.052;2023-08-12T05:12:34;100427.13;;;20.82;89.72
31483;BME280;18103;52.246;8.052;2023-08-12T05:15:00;100419.53;;;20.86;89.46
31483;BME280;18103;52.246;8.052;2023-08-12T05:17:25;100416.47;;;20.89;89.01
31483;BME280;18103;52.246;8.052;2023-08-12T05:19:51;100419.34;;;20.88;89.63
31483;BME280;18103;52.246;8.052;2023-08-12T05:22:19;100413.78;;;20.89;89.53
31483;BME280;18103;52.246;8.052;2023-08-12T05:24:44;100413.13;;;20.87;90.07
31483;BME280;18103;52.246;8.052;2023-08-12T05:27:09;100404.63;;;20.83;90.07
31483;BME280;18103;52.246;8.052;2023-08-12T05:29:35;100400.75;;;20.86;90.37
31483;BME280;18103;52.246;8.052;2023-08-12T05:32:00;100399.72;;;20.87;90.19
31483;BME280;18103;52.246;8.052;2023-08-12T05:34:26;100395.00;;;20.89;90.54
31483;BME280;18103;52.246;8.052;2023-08-12T05:36:52;100392.97;;;20.91;89.67
31483;BME280;18103;52.246;8.052;2023-08-12T05:39:17;100402.41;;;20.87;89.94
31483;BME280;18103;52.246;8.052;2023-08-12T05:41:45;100399.38;;;20.90;89.68
31483;BME280;18103;52.246;8.052;2023-08-12T05:44:11;100398.53;;;20.75;91.18
31483;BME280;18103;52.246;8.052;2023-08-12T05:46:36;100404.34;;;20.78;91.18
31483;BME280;18103;52.246;8.052;2023-08-12T05:49:02;100402.06;;;20.90;90.62
31483;BME280;18103;52.246;8.052;2023-08-12T05:51:27;100396.81;;;21.03;89.37
31483;BME280;18103;52.246;8.052;2023-08-12T05:53:55;100399.97;;;21.07;89.08
31483;BME280;18103;52.246;8.052;2023-08-12T05:56:20;100396.72;;;21.12;89.08
31483;BME280;18103;52.246;8.052;2023-08-12T05:58:48;100398.59;;;21.11;88.90
31483;BME280;18103;52.246;8.052;2023-08-12T06:01:13;100387.84;;;21.11;89.03
31483;BME280;18103;52.246;8.052;2023-08-12T06:03:38;100388.38;;;21.22;88.44
31483;BME280;18103;52.246;8.052;2023-08-12T06:06:07;100391.44;;;21.18;88.97
31483;BME280;18103;52.246;8.052;2023-08-12T06:08:33;100388.47;;;21.13;89.36
31483;BME280;18103;52.246;8.052;2023-08-12T06:11:01;100388.34;;;21.00;90.66
31483;BME280;18103;52.246;8.052;2023-08-12T06:13:32;100384.59;;;21.16;90.05
31483;BME280;18103;52.246;8.052;2023-08-12T06:15:59;100387.91;;;21.18;89.76
31483;BME280;18103;52.246;8.052;2023-08-12T06:18:25;100389.75;;;21.17;90.30
31483;BME280;18103;52.246;8.052;2023-08-12T06:20:50;100387.91;;;21.18;89.41
31483;BME280;18103;52.246;8.052;2023-08-12T06:23:16;100385.50;;;21.08;91.04
31483;BME280;18103;52.246;8.052;2023-08-12T06:25:41;100375.72;;;21.15;90.27
31483;BME280;18103;52.246;8.052;2023-08-12T06:28:08;100383.06;;;21.28;89.75
31483;BME280;18103;52.246;8.052;2023-08-12T06:30:34;100381.59;;;21.26;89.58
31483;BME280;18103;52.246;8.052;2023-08-12T06:33:01;100386.50;;;21.22;90.72
31483;BME280;18103;52.246;8.052;2023-08-12T06:35:27;100375.22;;;21.27;91.17
31483;BME280;18103;52.246;8.052;2023-08-12T06:37:59;100369.00;;;21.26;91.43
31483;BME280;18103;52.246;8.052;2023-08-12T06:40:25;100366.56;;;21.31;91.01
31483;BME280;18103;52.246;8.052;2023-08-12T06:42:51;100357.81;;;21.44;91.29
31483;BME280;18103;52.246;8.052;2023-08-12T06:45:17;100359.41;;;21.53;90.31
31483;BME280;18103;52.246;8.052;2023-08-12T06:47:47;100362.91;;;21.54;90.61
31483;BME280;18103;52.246;8.052;2023-08-12T06:50:12;100370.50;;;21.50;90.35
31483;BME280;18103;52.246;8.052;2023-08-12T06:52:40;100366.44;;;21.55;89.63
31483;BME280;18103;52.246;8.052;2023-08-12T06:55:06;100355.78;;;21.68;88.70
31483;BME280;18103;52.246;8.052;2023-08-12T06:57:31;100349.47;;;21.54;89.89
31483;BME280;18103;52.246;8.052;2023-08-12T06:59:57;100356.59;;;21.62;89.07
31483;BME280;18103;52.246;8.052;2023-08-12T07:02:25;100350.09;;;21.78;90.22
31483;BME280;18103;52.246;8.052;2023-08-12T07:04:53;100349.28;;;21.77;88.64
31483;BME280;18103;52.246;8.052;2023-08-12T07:07:18;100344.72;;;21.78;89.23
31483;BME280;18103;52.246;8.052;2023-08-12T07:09:44;100347.00;;;21.81;88.57
31483;BME280;18103;52.246;8.052;2023-08-12T07:12:11;100357.81;;;21.87;88.40
31483;BME280;18103;52.246;8.052;2023-08-12T07:14:37;100365.00;;;21.80;88.05
31483;BME280;18103;52.246;8.052;2023-08-12T07:17:02;100361.63;;;21.72;87.99
31483;BME280;18103;52.246;8.052;2023-08-12T07:19:27;100351.75;;;21.79;87.78
31483;BME280;18103;52.246;8.052;2023-08-12T07:21:53;100343.75;;;21.85;87.19
31483;BME280;18103;52.246;8.052;2023-08-12T07:24:21;100353.31;;;21.95;87.96
31483;BME280;18103;52.246;8.052;2023-08-12T07:26:46;100360.50;;;21.87;87.82
31483;BME280;18103;52.246;8.052;2023-08-12T07:29:16;100357.97;;;21.79;87.96
31483;BME280;18103;52.246;8.052;2023-08-12T07:31:44;100356.75;;;21.82;88.06
31483;BME280;18103;52.246;8.052;2023-08-12T07:34:09;100360.84;;;21.78;87.94
31483;BME280;18103;52.246;8.052;2023-08-12T07:36:39;100356.34;;;21.85;87.94
31483;BME280;18103;52.246;8.052;2023-08-12T07:39:05;100352.09;;;21.97;87.02
31483;BME280;18103;52.246;8.052;2023-08-12T07:41:31;100346.09;;;21.95;87.42
31483;BME280;18103;52.246;8.052;2023-08-12T07:43:59;100341.28;;;21.91;87.56
31483;BME280;18103;52.246;8.052;2023-08-12T07:46:28;100338.81;;;21.89;87.73
31483;BME280;18103;52.246;8.052;2023-08-12T07:48:56;100343.38;;;21.88;87.97
31483;BME280;18103;52.246;8.052;2023-08-12T07:51:24;100338.19;;;21.87;87.49
31483;BME280;18103;52.246;8.052;2023-08-12T07:53:50;100351.38;;;21.82;88.43
31483;BME280;18103;52.246;8.052;2023-08-12T07:56:18;100351.50;;;21.74;88.87
31483;BME280;18103;52.246;8.052;2023-08-12T07:58:43;100350.75;;;21.80;88.90
31483;BME280;18103;52.246;8.052;2023-08-12T08:01:10;100344.91;;;21.76;88.42
31483;BME280;18103;52.246;8.052;2023-08-12T08:03:38;100341.84;;;21.79;87.93
31483;BME280;18103;52.246;8.052;2023-08-12T08:06:09;100333.22;;;21.84;88.04
31483;BME280;18103;52.246;8.052;2023-08-12T08:08:34;100334.03;;;21.84;88.28
31483;BME280;18103;52.246;8.052;2023-08-12T08:10:59;100337.47;;;21.78;88.84
31483;BME280;18103;52.246;8.052;2023-08-12T08:13:30;100330.25;;;21.79;88.63
31483;BME280;18103;52.246;8.052;2023-08-12T08:15:58;100320.94;;;21.75;88.84
31483;BME280;18103;52.246;8.052;2023-08-12T08:18:23;100322.78;;;21.74;88.60
31483;BME280;18103;52.246;8.052;2023-08-12T08:20:51;100321.19;;;21.80;88.58
31483;BME280;18103;52.246;8.052;2023-08-12T08:23:16;100324.03;;;21.78;89.19
31483;BME280;18103;52.246;8.052;2023-08-12T08:25:42;100315.34;;;21.76;88.95
31483;BME280;18103;52.246;8.052;2023-08-12T08:28:08;100320.78;;;21.83;88.71
31483;BME280;18103;52.246;8.052;2023-08-12T08:30:36;100319.91;;;21.76;89.57
31483;BME280;18103;52.246;8.052;2023-08-12T08:33:02;100313.50;;;21.77;89.41
31483;BME280;18103;52.246;8.052;2023-08-12T08:35:29;100323.56;;;21.68;89.86
31483;BME280;18103;52.246;8.052;2023-08-12T08:37:55;100307.56;;;21.81;88.95
31483;BME280;18103;52.246;8.052;2023-08-12T08:40:20;100310.59;;;21.78;89.51
31483;BME280;18103;52.246;8.052;2023-08-12T08:42:51;100303.00;;;21.82;88.88
31483;BME280;18103;52.246;8.052;2023-08-12T08:45:18;100305.09;;;21.86;89.22
31483;BME280;18103;52.246;8.052;2023-08-12T08:47:51;100306.09;;;21.79;90.20
31483;BME280;18103;52.246;8.052;2023-08-12T08:50:18;100312.22;;;21.73;90.11
31483;BME280;18103;52.246;8.052;2023-08-12T08:52:43;100299.44;;;21.75;90.41
31483;BME280;18103;52.246;8.052;2023-08-12T08:55:11;100291.78;;;21.78;89.72
31483;BME280;18103;52.246;8.052;2023-08-12T08:57:37;100298.41;;;21.76;90.76
31483;BME280;18103;52.246;8.052;2023-08-12T09:00:06;100296.16;;;21.79;90.50
31483;BME280;18103;52.246;8.052;2023-08-12T09:02:39;100297.56;;;21.75;91.38
31483;BME280;18103;52.246;8.052;2023-08-12T09:05:07;100296.81;;;21.88;89.86
31483;BME280;18103;52.246;8.052;2023-08-12T09:07:33;100290.44;;;21.89;90.87
31483;BME280;18103;52.246;8.052;2023-08-12T09:10:02;100295.59;;;21.84;91.29
31483;BME280;18103;52.246;8.052;2023-08-12T09:12:30;100288.50;;;21.76;91.68
31483;BME280;18103;52.246;8.052;2023-08-12T09:14:57;100291.56;;;21.73;92.25
31483;BME280;18103;52.246;8.052;2023-08-12T09:17:25;100293.25;;;21.74;91.66
31483;BME280;18103;52.246;8.052;2023-08-12T09:19:52;100288.53;;;21.83;90.44
31483;BME280;18103;52.246;8.052;2023-08-12T09:22:20;100287.53;;;21.91;89.73
31483;BME280;18103;52.246;8.052;2023-08-12T09:24:50;100288.41;;;21.98;89.42
31483;BME280;18103;52.246;8.052;2023-08-12T09:27:17;100290.72;;;22.01;89.02
31483;BME280;18103;52.246;8.052;2023-08-12T09:29:45;100294.88;;;22.03;89.03
31483;BME280;18103;52.246;8.052;2023-08-12T09:34:37;100292.38;;;22.02;88.91
31483;BME280;18103;52.246;8.052;2023-08-12T09:37:02;100282.22;;;21.97;89.73
31483;BME280;18103;52.246;8.052;2023-08-12T09:39:29;100282.47;;;22.02;89.02
31483;BME280;18103;52.246;8.052;2023-08-12T09:41:55;100280.56;;;21.96;89.97
31483;BME280;18103;52.246;8.052;2023-08-12T09:44:21;100286.19;;;22.01;90.16
31483;BME280;18103;52.246;8.052;2023-08-12T09:46:56;100285.34;;;22.01;90.30
31483;BME280;18103;52.246;8.052;2023-08-12T09:49:29;100291.16;;;22.04;90.42
31483;BME280;18103;52.246;8.052;2023-08-12T09:51:55;100288.41;;;21.98;91.30
31483;BME280;18103;52.246;8.052;2023-08-12T09:54:25;100289.81;;;21.87;90.99
31483;BME280;18103;52.246;8.052;2023-08-12T09:56:55;100287.88;;;21.81;92.82
31483;BME280;18103;52.246;8.052;2023-08-12T09:59:22;100283.72;;;21.72;92.83
31483;BME280;18103;52.246;8.052;2023-08-12T10:01:49;100276.94;;;21.82;91.79
31483;BME280;18103;52.246;8.052;2023-08-12T10:04:29;100279.63;;;21.82;91.14
31483;BME280;18103;52.246;8.052;2023-08-12T10:06:57;100279.81;;;21.74;92.30
31483;BME280;18103;52.246;8.052;2023-08-12T10:09:23;100274.91;;;21.84;91.23
31483;BME280;18103;52.246;8.052;2023-08-12T10:11:49;100264.22;;;21.91;90.95
31483;BME280;18103;52.246;8.052;2023-08-12T10:14:19;100264.66;;;22.01;91.42
31483;BME280;18103;52.246;8.052;2023-08-12T10:16:46;100269.44;;;21.99;91.65
31483;BME280;18103;52.246;8.052;2023-08-12T10:19:16;100264.22;;;21.98;91.43
31483;BME280;18103;52.246;8.052;2023-08-12T10:21:44;100260.97;;;22.02;91.57
31483;BME280;18103;52.246;8.052;2023-08-12T10:24:13;100259.53;;;22.07;91.24
31483;BME280;18103;52.246;8.052;2023-08-12T10:26:42;100256.84;;;22.07;91.12
31483;BME280;18103;52.246;8.052;2023-08-12T10:29:11;100253.47;;;21.98;91.39
31483;BME280;18103;52.246;8.052;2023-08-12T10:31:38;100257.06;;;22.05;90.57
31483;BME280;18103;52.246;8.052;2023-08-12T10:34:03;100253.56;;;22.11;91.09
31483;BME280;18103;52.246;8.052;2023-08-12T10:36:31;100247.13;;;22.05;91.64
31483;BME280;18103;52.246;8.052;2023-08-12T10:39:00;100248.22;;;22.18;90.34
31483;BME280;18103;52.246;8.052;2023-08-12T10:41:25;100254.38;;;22.12;91.71
31483;BME280;18103;52.246;8.052;2023-08-12T10:44:00;100245.25;;;22.06;91.21
31483;BME280;18103;52.246;8.052;2023-08-12T10:46:35;100244.88;;;22.16;90.61
31483;BME280;18103;52.246;8.052;2023-08-12T11:02:23;100253.91;;;22.01;91.83
31483;BME280;18103;52.246;8.052;2023-08-12T11:04:54;100250.47;;;22.14;91.09
31483;BME280;18103;52.246;8.052;2023-08-12T11:15:17;100247.06;;;21.99;92.42
31483;BME280;18103;52.246;8.052;2023-08-12T11:17:45;100240.47;;;22.01;91.59
31483;BME280;18103;52.246;8.052;2023-08-12T11:20:12;100239.41;;;21.96;92.12
31483;BME280;18103;52.246;8.052;2023-08-12T11:22:43;100232.38;;;21.95;91.77
31483;BME280;18103;52.246;8.052;2023-08-12T11:25:14;100247.63;;;21.87;92.45
31483;BME280;18103;52.246;8.052;2023-08-12T11:27:44;100229.28;;;21.91;92.09
31483;BME280;18103;52.246;8.052;2023-08-12T11:30:16;100220.34;;;21.91;92.80
31483;BME280;18103;52.246;8.052;2023-08-12T11:32:43;100219.78;;;21.95;91.35
31483;BME280;18103;52.246;8.052;2023-08-12T11:35:10;100222.03;;;21.92;92.50
31483;BME280;18103;52.246;8.052;2023-08-12T11:37:37;100232.16;;;21.90;92.59
31483;BME280;18103;52.246;8.052;2023-08-12T11:40:05;100226.41;;;21.99;91.95
31483;BME280;18103;52.246;8.052;2023-08-12T11:42:31;100231.97;;;21.98;92.48
31483;BME280;18103;52.246;8.052;2023-08-12T11:44:59;100226.78;;;21.90;93.33
31483;BME280;18103;52.246;8.052;2023-08-12T11:47:24;100233.19;;;21.88;92.57
31483;BME280;18103;52.246;8.052;2023-08-12T11:49:52;100227.69;;;22.03;91.74
31483;BME280;18103;52.246;8.052;2023-08-12T11:52:18;100227.84;;;21.95;92.61
31483;BME280;18103;52.246;8.052;2023-08-12T11:54:46;100219.34;;;21.92;92.79
31483;BME280;18103;52.246;8.052;2023-08-12T11:57:11;100226.59;;;21.98;92.40
31483;BME280;18103;52.246;8.052;2023-08-12T11:59:37;100238.75;;;21.87;93.71
31483;BME280;18103;52.246;8.052;2023-08-12T12:02:03;100226.44;;;22.06;92.44
31483;BME280;18103;52.246;8.052;2023-08-12T12:04:34;100225.22;;;22.09;92.66
31483;BME280;18103;52.246;8.052;2023-08-12T12:06:59;100226.50;;;22.19;93.73
31483;BME280;18103;52.246;8.052;2023-08-12T12:09:31;100218.59;;;22.11;93.13
31483;BME280;18103;52.246;8.052;2023-08-12T12:12:02;100216.94;;;22.10;93.62
31483;BME280;18103;52.246;8.052;2023-08-12T12:14:32;100215.31;;;22.16;95.07
31483;BME280;18103;52.246;8.052;2023-08-12T12:17:09;100211.00;;;22.21;95.54
31483;BME280;18103;52.246;8.052;2023-08-12T12:19:40;100211.44;;;22.25;96.09
31483;BME280;18103;52.246;8.052;2023-08-12T12:22:05;100218.69;;;22.31;95.90
31483;BME280;18103;52.246;8.052;2023-08-12T12:24:47;100220.81;;;22.36;95.67
31483;BME280;18103;52.246;8.052;2023-08-12T12:27:15;100218.13;;;22.43;94.48
31483;BME280;18103;52.246;8.052;2023-08-12T12:29:41;100214.81;;;22.41;95.05
31483;BME280;18103;52.246;8.052;2023-08-12T12:32:06;100214.22;;;22.45;93.91
31483;BME280;18103;52.246;8.052;2023-08-12T12:34:38;100219.41;;;22.53;93.62
31483;BME280;18103;52.246;8.052;2023-08-12T12:37:03;100218.38;;;22.48;92.79
31483;BME280;18103;52.246;8.052;2023-08-12T12:39:28;100215.47;;;22.49;92.51
31483;BME280;18103;52.246;8.052;2023-08-12T12:41:54;100219.81;;;22.44;92.60
31483;BME280;18103;52.246;8.052;2023-08-12T12:44:27;100222.50;;;22.44;91.31
31483;BME280;18103;52.246;8.052;2023-08-12T12:46:53;100213.22;;;22.53;91.89
31483;BME280;18103;52.246;8.052;2023-08-12T12:49:19;100214.28;;;22.59;91.27
31483;BME280;18103;52.246;8.052;2023-08-12T12:51:45;100207.22;;;22.58;91.03
31483;BME280;18103;52.246;8.052;2023-08-12T12:54:13;100219.03;;;22.63;91.02
31483;BME280;18103;52.246;8.052;2023-08-12T12:56:39;100219.00;;;22.56;91.84
31483;BME280;18103;52.246;8.052;2023-08-12T12:59:07;100227.75;;;22.65;91.10
31483;BME280;18103;52.246;8.052;2023-08-12T13:01:34;100234.59;;;22.68;91.30
31483;BME280;18103;52.246;8.052;2023-08-12T13:04:00;100227.34;;;22.75;91.62
31483;BME280;18103;52.246;8.052;2023-08-12T13:06:25;100226.50;;;22.75;91.58
31483;BME280;18103;52.246;8.052;2023-08-12T13:08:51;100236.50;;;22.87;90.97
31483;BME280;18103;52.246;8.052;2023-08-12T13:11:19;100225.31;;;22.97;89.89
31483;BME280;18103;52.246;8.052;2023-08-12T13:13:47;100236.47;;;22.81;91.71
31483;BME280;18103;52.246;8.052;2023-08-12T13:16:12;100231.28;;;22.86;91.02
31483;BME280;18103;52.246;8.052;2023-08-12T13:18:40;100228.19;;;22.96;92.76
31483;BME280;18103;52.246;8.052;2023-08-12T13:21:05;100236.28;;;22.96;90.99